Time;durP1;ratioP1;P1;durP2;ratioP2;P2;SDS_P1;SDS_P2;PMS_P1;PMS_P2;Temp;Humidity;BMP_temperature;BMP_pressure;BME280_temperature;BME280_humidity;BME280_pressure;Samples;Min_cycle;Max_cycle;Signal;HPM_P1;HPM_P2
2022/09/04 00:01:43;;;;;;;;;;;;;;;18.06;61.93;100131.47;4377801;32;33274;-83
2022/09/04 00:04:20;;;;;;;;;;;;;;;18.03;61.85;100142.34;4386495;32;34413;-83
2022/09/04 00:06:57;;;;;;;;;;;;;;;17.99;62.15;100135.50;4387279;32;33115;-83
2022/09/04 00:09:27;;;;;;;;;;;;;;;17.97;62.13;100145.44;4354611;32;33773;-83
2022/09/04 00:11:57;;;;;;;;;;;;;;;18.12;61.55;100140.88;4367274;32;33487;-83
2022/09/04 00:14:32;;;;;;;;;;;;;;;18.07;61.75;100143.84;4367262;32;33912;-83
2022/09/04 00:17:02;;;;;;;;;;;;;;;18.07;61.59;100146.53;4351061;32;31869;-83
2022/09/04 00:19:42;;;;;;;;;;;;;;;17.94;62.28;100142.13;4354569;32;33115;-83
2022/09/04 00:22:21;;;;;;;;;;;;;;;18.00;62.04;100142.59;4351627;32;784785;-83
2022/09/04 00:25:09;;;;;;;;;;;;;;;18.01;62.11;100138.94;4384718;32;33702;-83
2022/09/04 00:27:43;;;;;;;;;;;;;;;17.92;62.48;100142.25;4377706;32;32061;-84
2022/09/04 00:30:11;;;;;;;;;;;;;;;17.91;62.67;100156.56;4367552;32;34598;-83
2022/09/04 00:32:50;;;;;;;;;;;;;;;18.21;61.74;100152.72;4387368;32;35154;-83
2022/09/04 00:35:23;;;;;;;;;;;;;;;18.21;61.90;100155.41;4388724;32;34296;-83
2022/09/04 00:38:00;;;;;;;;;;;;;;;18.13;62.37;100158.59;4366844;32;32384;-83
2022/09/04 00:40:38;;;;;;;;;;;;;;;18.10;62.75;100151.66;4390625;32;34147;-83
2022/09/04 00:43:25;;;;;;;;;;;;;;;18.35;61.82;100152.63;4362346;32;33449;-83
2022/09/04 00:46:16;;;;;;;;;;;;;;;18.31;62.01;100156.47;4366618;32;33897;-83
2022/09/04 00:48:53;;;;;;;;;;;;;;;18.26;62.34;100155.94;4364949;32;33015;-84
2022/09/04 00:51:39;;;;;;;;;;;;;;;18.26;62.67;100154.12;4389254;32;34002;-83
2022/09/04 00:54:13;;;;;;;;;;;;;;;18.30;62.91;100154.75;4377265;32;32616;-83
2022/09/04 00:56:53;;;;;;;;;;;;;;;18.14;63.47;100150.50;4386310;32;34173;-83
2022/09/04 00:59:23;;;;;;;;;;;;;;;18.21;63.31;100150.06;4384514;32;33297;-83
2022/09/04 01:01:54;;;;;;;;;;;;;;;18.17;63.62;100139.56;4373715;32;33624;-84
2022/09/04 01:04:28;;;;;;;;;;;;;;;18.24;63.67;100147.19;4365486;32;32753;-83
2022/09/04 01:07:22;;;;;;;;;;;;;;;18.42;63.04;100144.06;4378657;32;33006;-83
2022/09/04 01:09:56;;;;;;;;;;;;;;;18.48;62.99;100149.94;4372743;32;34058;-83
2022/09/04 01:12:37;;;;;;;;;;;;;;;18.42;63.12;100154.75;4377515;32;33812;-83
2022/09/04 01:15:13;;;;;;;;;;;;;;;18.64;62.42;100159.44;4365956;32;33963;-83
2022/09/04 01:17:47;;;;;;;;;;;;;;;18.49;62.47;100165.87;4367271;32;33853;-83
2022/09/04 01:20:27;;;;;;;;;;;;;;;18.65;62.19;100158.47;4363974;32;33382;-84
2022/09/04 01:22:58;;;;;;;;;;;;;;;18.44;63.13;100168.03;4387504;32;33415;-83
2022/09/04 01:25:31;;;;;;;;;;;;;;;18.72;62.40;100171.44;4375920;32;32602;-84
2022/09/04 01:28:18;;;;;;;;;;;;;;;18.49;63.30;100176.56;4383139;32;33802;-83
2022/09/04 01:30:48;;;;;;;;;;;;;;;18.45;63.29;100182.25;4366525;32;32645;-83
2022/09/04 01:33:22;;;;;;;;;;;;;;;18.32;63.58;100184.91;4354137;32;33798;-83
2022/09/04 01:35:55;;;;;;;;;;;;;;;18.40;63.44;100183.41;4366723;32;34682;-83
2022/09/04 01:38:40;;;;;;;;;;;;;;;18.59;62.66;100177.62;4365378;32;34182;-83
2022/09/04 01:41:13;;;;;;;;;;;;;;;18.52;63.02;100176.37;4377432;32;32761;-83
2022/09/04 01:43:41;;;;;;;;;;;;;;;18.54;62.89;100185.13;4354012;32;34040;-83
2022/09/04 01:46:28;;;;;;;;;;;;;;;18.69;62.50;100180.53;4378288;32;33973;-84
2022/09/04 01:49:15;;;;;;;;;;;;;;;18.65;62.64;100185.19;4389785;32;35873;-83
2022/09/04 01:51:51;;;;;;;;;;;;;;;18.72;62.52;100188.34;4366061;32;32485;-83
2022/09/04 01:54:42;;;;;;;;;;;;;;;18.66;62.60;100183.41;4388931;32;34211;-83
2022/09/04 01:57:15;;;;;;;;;;;;;;;18.85;61.97;100185.66;4370700;32;33028;-83
2022/09/04 01:59:42;;;;;;;;;;;;;;;18.72;62.32;100188.34;4377607;32;34207;-83
2022/09/04 02:02:24;;;;;;;;;;;;;;;18.71;62.39;100188.47;4386053;32;33363;-83
2022/09/04 02:05:00;;;;;;;;;;;;;;;18.55;62.99;100185.97;4354988;32;34099;-83
2022/09/04 02:07:39;;;;;;;;;;;;;;;18.42;63.43;100183.31;4356583;32;33065;-83
2022/09/04 02:10:07;;;;;;;;;;;;;;;18.65;62.59;100187.88;4380059;32;35102;-84
2022/09/04 02:12:41;;;;;;;;;;;;;;;18.87;61.66;100187.25;4372901;32;32564;-83
2022/09/04 02:15:08;;;;;;;;;;;;;;;18.90;61.20;100187.03;4392724;32;34669;-83
2022/09/04 02:18:06;;;;;;;;;;;;;;;18.61;62.13;100186.41;4373168;32;34043;-84
2022/09/04 02:20:33;;;;;;;;;;;;;;;18.91;61.09;100182.53;4382746;32;34211;-84
2022/09/04 02:23:12;;;;;;;;;;;;;;;18.86;61.30;100184.69;4365376;32;32322;-83
2022/09/04 02:25:41;;;;;;;;;;;;;;;18.89;61.24;100179.09;4379874;32;33851;-84
2022/09/04 02:28:14;;;;;;;;;;;;;;;19.03;60.61;100178.94;4355205;32;33957;-83
2022/09/04 02:31:02;;;;;;;;;;;;;;;18.93;60.90;100185.94;4391500;32;34902;-83
2022/09/04 02:33:39;;;;;;;;;;;;;;;18.94;60.82;100195.66;4370116;32;33932;-84
2022/09/04 02:36:09;;;;;;;;;;;;;;;18.62;61.88;100196.13;4392796;32;34876;-83
2022/09/04 02:38:39;;;;;;;;;;;;;;;18.91;60.91;100190.56;4402068;32;34034;-83
2022/09/04 02:41:14;;;;;;;;;;;;;;;18.95;60.77;100197.41;4384623;32;34902;-84
2022/09/04 02:43:45;;;;;;;;;;;;;;;18.95;60.77;100194.72;4364443;32;34025;-83
2022/09/04 02:46:31;;;;;;;;;;;;;;;19.01;60.61;100188.06;4379301;32;32805;-83
2022/09/04 02:49:18;;;;;;;;;;;;;;;19.09;60.31;100183.88;4379861;32;32878;-83
2022/09/04 02:51:52;;;;;;;;;;;;;;;19.08;60.32;100187.50;4367118;32;34749;-84
2022/09/04 02:54:38;;;;;;;;;;;;;;;19.11;60.25;100189.97;4386118;32;33380;-83
2022/09/04 02:57:19;;;;;;;;;;;;;;;19.18;59.87;100191.22;4380060;32;32925;-83
2022/09/04 02:59:46;;;;;;;;;;;;;;;19.09;60.23;100191.06;4385843;32;34091;-84
2022/09/04 03:02:22;;;;;;;;;;;;;;;18.48;62.19;100195.41;4393269;32;34855;-83
2022/09/04 03:04:56;;;;;;;;;;;;;;;18.55;61.93;100191.31;4379792;32;33035;-84
2022/09/04 03:07:25;;;;;;;;;;;;;;;18.82;61.23;100188.53;4376902;32;32806;-83
2022/09/04 03:10:04;;;;;;;;;;;;;;;19.07;60.46;100193.81;4367730;32;34248;-83
2022/09/04 03:12:32;;;;;;;;;;;;;;;19.11;60.30;100189.09;4372495;32;34331;-83
2022/09/04 03:15:06;;;;;;;;;;;;;;;18.98;60.51;100194.47;4375556;32;34221;-83
2022/09/04 03:17:37;;;;;;;;;;;;;;;18.91;60.62;100190.56;4367217;32;34982;-83
2022/09/04 03:20:15;;;;;;;;;;;;;;;18.97;60.22;100189.25;4380126;32;33579;-83
2022/09/04 03:22:53;;;;;;;;;;;;;;;18.84;60.77;100190.13;4367685;32;32911;-83
2022/09/04 03:25:24;;;;;;;;;;;;;;;18.84;61.11;100197.31;4379323;32;33505;-83
2022/09/04 03:27:51;;;;;;;;;;;;;;;18.93;60.64;100196.63;4392217;32;34399;-83
2022/09/04 03:30:19;;;;;;;;;;;;;;;18.50;62.05;100194.31;4354971;32;33126;-83
2022/09/04 03:32:46;;;;;;;;;;;;;;;18.43;62.02;100201.91;4379526;32;34916;-83
2022/09/04 03:35:20;;;;;;;;;;;;;;;18.66;61.23;100205.66;4390775;32;34045;-83
2022/09/04 03:37:58;;;;;;;;;;;;;;;18.74;61.05;100207.81;4390786;32;34235;-83
2022/09/04 03:40:41;;;;;;;;;;;;;;;18.79;60.82;100212.81;4379281;32;34426;-83
2022/09/04 03:43:15;;;;;;;;;;;;;;;18.73;60.93;100213.28;4379006;32;34667;-83
2022/09/04 03:45:45;;;;;;;;;;;;;;;18.78;60.64;100217.31;4371561;32;33572;-83
2022/09/04 03:48:16;;;;;;;;;;;;;;;18.85;60.25;100212.41;4373242;32;33170;-83
2022/09/04 03:50:44;;;;;;;;;;;;;;;18.78;60.52;100217.31;4390387;32;35041;-83
2022/09/04 03:53:17;;;;;;;;;;;;;;;18.78;60.57;100220.00;4393058;32;34224;-84
2022/09/04 03:55:45;;;;;;;;;;;;;;;18.85;60.28;100220.44;4378292;32;33098;-83
2022/09/04 03:58:36;;;;;;;;;;;;;;;18.81;60.38;100218.94;4376243;32;33038;-83
2022/09/04 04:01:04;;;;;;;;;;;;;;;18.62;60.90;100219.34;4373994;32;32963;-83
2022/09/04 04:03:32;;;;;;;;;;;;;;;18.67;60.65;100223.41;4385553;32;35025;-83
2022/09/04 04:06:04;;;;;;;;;;;;;;;18.65;60.73;100219.97;4379315;32;32188;-83
2022/09/04 04:08:41;;;;;;;;;;;;;;;18.64;60.86;100225.44;4391418;32;35023;-83
2022/09/04 04:11:08;;;;;;;;;;;;;;;18.63;60.87;100229.94;4366823;32;32845;-83
2022/09/04 04:13:54;;;;;;;;;;;;;;;18.61;61.06;100236.34;4373770;32;33356;-83
2022/09/04 04:16:27;;;;;;;;;;;;;;;18.59;61.06;100235.59;4382790;32;33435;-83
2022/09/04 04:19:05;;;;;;;;;;;;;;;18.57;60.94;100246.44;4353116;32;33360;-83
2022/09/04 04:21:54;;;;;;;;;;;;;;;18.63;60.83;100247.81;4379356;32;33942;-83
2022/09/04 04:24:31;;;;;;;;;;;;;;;18.69;60.53;100255.44;4373282;32;33192;-83
2022/09/04 04:27:06;;;;;;;;;;;;;;;18.66;60.76;100261.81;4362033;32;32382;-83
2022/09/04 04:29:41;;;;;;;;;;;;;;;18.42;61.57;100266.22;4366963;32;33894;-84
2022/09/04 04:32:23;;;;;;;;;;;;;;;18.84;60.29;100272.22;4366947;32;32965;-83
2022/09/04 04:34:51;;;;;;;;;;;;;;;18.71;60.67;100268.72;4382012;32;34282;-83
2022/09/04 04:37:30;;;;;;;;;;;;;;;18.74;60.67;100277.34;4393148;32;33098;-83
2022/09/04 04:40:01;;;;;;;;;;;;;;;18.56;61.42;100284.84;4365632;32;33740;-83
2022/09/04 04:42:34;;;;;;;;;;;;;;;18.59;61.53;100279.25;4366740;32;34465;-83
2022/09/04 04:48:09;;;;;;;;;;;;;;;18.54;62.12;100286.75;4392072;32;33319;-83
2022/09/04 04:50:44;;;;;;;;;;;;;;;18.46;62.33;100288.22;4396416;32;33421;-83
2022/09/04 04:53:18;;;;;;;;;;;;;;;18.71;61.51;100276.75;4370058;32;34024;-83
2022/09/04 04:55:52;;;;;;;;;;;;;;;18.74;61.52;100292.56;4378153;32;33368;-83
2022/09/04 04:58:23;;;;;;;;;;;;;;;18.83;61.19;100292.75;4378111;32;33093;-83
2022/09/04 05:01:10;;;;;;;;;;;;;;;19.22;60.00;100298.06;4377418;32;33913;-83
2022/09/04 05:03:50;;;;;;;;;;;;;;;18.87;61.00;100299.62;4390193;32;34019;-83
2022/09/04 05:06:20;;;;;;;;;;;;;;;19.02;60.83;100305.72;4365201;32;33148;-83
2022/09/04 05:09:02;;;;;;;;;;;;;;;19.23;60.33;100294.41;4365583;32;33217;-83
2022/09/04 05:11:44;;;;;;;;;;;;;;;19.18;60.50;100295.63;4363029;32;32965;-83
2022/09/04 05:14:15;;;;;;;;;;;;;;;19.15;60.62;100295.84;4389176;32;34070;-83
2022/09/04 05:16:47;;;;;;;;;;;;;;;19.06;61.48;100303.69;4368614;32;32505;-83
2022/09/04 05:19:24;;;;;;;;;;;;;;;19.07;61.17;100308.06;4379017;32;33407;-83
2022/09/04 05:21:57;;;;;;;;;;;;;;;19.25;60.75;100308.56;4377965;32;33971;-83
2022/09/04 05:24:25;;;;;;;;;;;;;;;19.32;60.70;100305.34;4384118;32;33856;-83
2022/09/04 05:26:59;;;;;;;;;;;;;;;19.27;61.28;100296.78;4382915;32;35025;-83
2022/09/04 05:29:31;;;;;;;;;;;;;;;19.24;61.00;100299.69;4389870;32;33416;-83
2022/09/04 05:32:22;;;;;;;;;;;;;;;19.02;61.71;100308.37;4354385;32;33916;-83
2022/09/04 05:34:50;;;;;;;;;;;;;;;19.23;60.87;100310.50;4365499;32;33667;-83
2022/09/04 05:37:20;;;;;;;;;;;;;;;18.88;62.14;100316.53;4379992;32;34072;-84
2022/09/04 05:40:03;;;;;;;;;;;;;;;19.19;60.82;100310.72;4371426;32;32623;-84
2022/09/04 05:42:49;;;;;;;;;;;;;;;19.17;61.24;100323.34;4369966;32;33398;-83
2022/09/04 05:45:43;;;;;;;;;;;;;;;19.00;61.58;100325.53;4392882;32;33785;-83
2022/09/04 05:48:29;;;;;;;;;;;;;;;19.05;61.32;100331.41;4377214;32;32869;-84
2022/09/04 05:51:03;;;;;;;;;;;;;;;19.32;60.55;100326.78;4365230;32;33477;-83
2022/09/04 05:53:36;;;;;;;;;;;;;;;19.02;61.30;100340.50;4371877;32;33377;-83
2022/09/04 05:56:20;;;;;;;;;;;;;;;19.15;61.18;100335.16;4358774;32;34598;-84
2022/09/04 05:59:02;;;;;;;;;;;;;;;19.11;61.23;100334.50;4377286;32;35828;-84
2022/09/04 06:01:50;;;;;;;;;;;;;;;19.12;61.28;100336.19;4390068;32;33191;-83
2022/09/04 06:04:40;;;;;;;;;;;;;;;18.97;61.95;100331.94;4392210;32;34805;-84
2022/09/04 06:07:12;;;;;;;;;;;;;;;18.89;62.31;100334.28;4390664;32;33034;-84
2022/09/04 06:09:42;;;;;;;;;;;;;;;18.72;62.90;100326.59;4366951;32;35201;-84
2022/09/04 06:12:33;;;;;;;;;;;;;;;18.70;62.90;100328.50;4378972;32;32164;-84
2022/09/04 06:15:03;;;;;;;;;;;;;;;18.95;62.33;100328.53;4391709;32;34122;-84
2022/09/04 06:17:46;;;;;;;;;;;;;;;19.06;61.83;100336.66;4367271;32;34200;-83
2022/09/04 06:20:14;;;;;;;;;;;;;;;18.88;62.59;100335.25;4391617;32;34141;-84
2022/09/04 06:22:47;;;;;;;;;;;;;;;19.09;62.10;100330.22;4392717;32;34159;-84
2022/09/04 06:25:19;;;;;;;;;;;;;;;19.14;61.58;100331.63;4382115;32;33624;-83
2022/09/04 06:28:08;;;;;;;;;;;;;;;19.25;61.76;100336.19;4365903;32;33373;-83
2022/09/04 06:30:37;;;;;;;;;;;;;;;19.28;61.28;100335.13;4385949;32;34619;-83
2022/09/04 06:33:11;;;;;;;;;;;;;;;19.51;60.16;100338.81;4363817;32;32254;-83
2022/09/04 06:35:58;;;;;;;;;;;;;;;19.20;60.84;100341.03;4376621;32;34846;-83
2022/09/04 06:38:31;;;;;;;;;;;;;;;19.31;60.74;100337.56;4393556;32;34839;-84
2022/09/04 06:41:18;;;;;;;;;;;;;;;19.51;60.43;100339.66;4392823;32;34844;-82
2022/09/04 06:43:51;;;;;;;;;;;;;;;19.43;60.64;100350.09;4366767;32;32773;-83
2022/09/04 06:46:27;;;;;;;;;;;;;;;19.68;59.73;100346.53;4397411;32;32900;-83
2022/09/04 06:49:00;;;;;;;;;;;;;;;19.73;59.31;100349.72;4378882;32;34045;-83
2022/09/04 06:51:31;;;;;;;;;;;;;;;19.47;60.27;100356.97;4378614;32;34570;-84
2022/09/04 06:54:18;;;;;;;;;;;;;;;19.76;59.66;100362.91;4378022;32;33002;-84
2022/09/04 06:56:55;;;;;;;;;;;;;;;19.42;60.11;100359.09;4371948;32;33536;-83
2022/09/04 06:59:25;;;;;;;;;;;;;;;19.37;60.60;100361.22;4379805;32;34196;-83
2022/09/04 07:02:06;;;;;;;;;;;;;;;19.62;60.30;100361.22;4370430;32;33296;-86
2022/09/04 07:04:46;;;;;;;;;;;;;;;19.76;59.22;100360.22;4354190;32;33138;-83
2022/09/04 07:07:26;;;;;;;;;;;;;;;20.02;59.12;100362.81;4390644;32;34916;-84
2022/09/04 07:09:58;;;;;;;;;;;;;;;19.99;58.60;100368.38;4387319;32;35079;-84
2022/09/04 07:12:37;;;;;;;;;;;;;;;20.19;58.02;100360.59;4391171;32;33749;-84
2022/09/04 07:15:11;;;;;;;;;;;;;;;19.91;58.67;100371.66;4391224;32;33082;-84
2022/09/04 07:17:40;;;;;;;;;;;;;;;19.95;58.46;100375.81;4386152;32;34200;-84
2022/09/04 07:20:14;;;;;;;;;;;;;;;19.67;60.32;100369.78;4367300;32;34387;-83
2022/09/04 07:22:46;;;;;;;;;;;;;;;19.58;60.92;100375.78;4367235;32;33264;-84
2022/09/04 07:25:22;;;;;;;;;;;;;;;20.04;58.75;100372.47;4368439;32;32824;-83
2022/09/04 07:28:08;;;;;;;;;;;;;;;20.11;59.97;100368.34;4367166;32;34497;-84
2022/09/04 07:30:38;;;;;;;;;;;;;;;19.96;59.46;100374.84;4391528;32;34182;-83
2022/09/04 07:33:10;;;;;;;;;;;;;;;20.73;56.69;100369.09;4378635;32;34439;-83
2022/09/04 07:35:43;;;;;;;;;;;;;;;20.74;57.37;100371.66;4355295;32;32387;-84
2022/09/04 07:38:20;;;;;;;;;;;;;;;20.43;57.07;100375.81;4393190;32;34318;-83
2022/09/04 07:40:58;;;;;;;;;;;;;;;20.58;56.80;100377.34;4384218;32;34682;-84
2022/09/04 07:43:35;;;;;;;;;;;;;;;20.33;57.05;100372.13;4377613;32;34097;-84
2022/09/04 07:46:09;;;;;;;;;;;;;;;19.73;59.01;100383.72;4367618;32;32153;-84
2022/09/04 07:48:43;;;;;;;;;;;;;;;19.94;58.28;100387.50;4367805;32;32807;-85
2022/09/04 07:51:12;;;;;;;;;;;;;;;19.96;57.75;100390.94;4384820;32;33749;-84
2022/09/04 07:53:40;;;;;;;;;;;;;;;20.24;57.49;100386.22;4368873;32;33943;-84
2022/09/04 07:56:19;;;;;;;;;;;;;;;19.99;57.59;100382.66;4393323;32;33803;-83
2022/09/04 07:58:49;;;;;;;;;;;;;;;20.20;57.17;100386.44;4390090;32;34638;-87
2022/09/04 08:01:36;;;;;;;;;;;;;;;19.96;57.94;100396.28;4381232;32;34748;-87
2022/09/04 08:04:20;;;;;;;;;;;;;;;19.88;58.18;100398.66;4371273;32;33174;-87
2022/09/04 08:06:49;;;;;;;;;;;;;;;20.32;56.66;100397.19;4379783;32;32876;-87
2022/09/04 08:09:26;;;;;;;;;;;;;;;20.19;57.35;100405.31;4367856;32;32681;-87
2022/09/04 08:12:03;;;;;;;;;;;;;;;20.20;57.26;100415.06;4370479;32;33452;-87
2022/09/04 08:14:50;;;;;;;;;;;;;;;20.73;56.23;100422.78;4364938;32;33309;-87
2022/09/04 08:17:41;;;;;;;;;;;;;;;20.75;55.41;100426.19;4392226;32;32995;-87
2022/09/04 08:20:33;;;;;;;;;;;;;;;20.82;55.23;100419.38;4380169;32;34260;-87
2022/09/04 08:23:02;;;;;;;;;;;;;;;20.62;55.53;100416.41;4366525;32;33072;-88
2022/09/04 08:25:42;;;;;;;;;;;;;;;20.78;55.40;100420.59;4371643;32;33577;-87
2022/09/04 08:28:32;;;;;;;;;;;;;;;20.83;54.98;100418.41;4367483;32;34302;-87
2022/09/04 08:31:07;;;;;;;;;;;;;;;21.00;54.87;100420.66;4401176;32;32815;-88
2022/09/04 08:33:54;;;;;;;;;;;;;;;21.19;54.20;100420.94;4365733;32;33293;-87
2022/09/04 08:36:35;;;;;;;;;;;;;;;21.13;54.62;100426.81;4365378;32;32586;-87
2022/09/04 08:39:05;;;;;;;;;;;;;;;21.08;54.89;100429.00;4379092;32;33509;-87
2022/09/04 08:41:53;;;;;;;;;;;;;;;21.01;54.72;100421.50;4365319;32;34521;-87
2022/09/04 08:44:25;;;;;;;;;;;;;;;21.29;53.91;100412.16;4379385;32;33935;-87
2022/09/04 08:47:00;;;;;;;;;;;;;;;21.29;54.32;100430.97;4364552;32;33958;-87
2022/09/04 08:49:34;;;;;;;;;;;;;;;20.91;56.55;100432.09;4367154;32;32334;-87
2022/09/04 08:52:20;;;;;;;;;;;;;;;21.19;54.94;100431.69;4375196;32;33490;-87
2022/09/04 08:54:59;;;;;;;;;;;;;;;21.37;53.58;100421.38;4384855;32;35050;-88
2022/09/04 08:57:39;;;;;;;;;;;;;;;21.11;55.30;100420.69;4374197;32;33889;-86
2022/09/04 09:00:12;;;;;;;;;;;;;;;21.44;53.13;100427.09;4373932;32;32385;-87
2022/09/04 09:02:52;;;;;;;;;;;;;;;21.21;54.12;100427.03;4368557;32;34479;-87
2022/09/04 09:05:37;;;;;;;;;;;;;;;21.17;54.12;100422.91;4392639;32;33752;-87
2022/09/04 09:08:20;;;;;;;;;;;;;;;21.32;53.60;100425.41;4392440;32;33868;-87
2022/09/04 09:11:07;;;;;;;;;;;;;;;21.08;54.92;100429.00;4378589;32;34013;-87
2022/09/04 09:13:53;;;;;;;;;;;;;;;20.94;56.36;100431.88;4379747;32;34124;-87
2022/09/04 09:16:43;;;;;;;;;;;;;;;21.20;54.33;100430.69;4392461;32;35016;-87
2022/09/04 09:19:36;;;;;;;;;;;;;;;20.85;55.01;100436.13;4374948;32;32711;-86
2022/09/04 09:22:07;;;;;;;;;;;;;;;21.31;53.91;100431.72;4347323;32;33966;-86
2022/09/04 09:24:50;;;;;;;;;;;;;;;21.15;54.41;100435.56;4378149;32;34397;-86
2022/09/04 09:27:37;;;;;;;;;;;;;;;21.50;53.87;100434.66;4377524;32;33430;-86
2022/09/04 09:30:11;;;;;;;;;;;;;;;21.49;53.72;100432.97;4380355;32;33874;-86
2022/09/04 09:32:57;;;;;;;;;;;;;;;21.54;53.85;100436.13;4356438;32;32605;-87
2022/09/04 09:35:40;;;;;;;;;;;;;;;21.52;53.25;100438.09;4400231;32;33011;-87
2022/09/04 09:38:08;;;;;;;;;;;;;;;21.50;53.52;100434.66;4378255;32;33750;-87
2022/09/04 09:40:54;;;;;;;;;;;;;;;21.63;53.56;100440.78;4377861;32;34790;-87
2022/09/04 09:44:01;;;;;;;;;;;;;;;21.95;52.15;100437.34;4368483;32;33138;-87
2022/09/04 09:46:37;;;;;;;;;;;;;;;21.91;52.00;100438.56;4327021;33;32521;-86
2022/09/04 09:49:04;;;;;;;;;;;;;;;21.98;52.52;100440.66;4359294;32;33194;-87
2022/09/04 09:52:00;;;;;;;;;;;;;;;21.89;52.54;100429.78;4373388;32;33199;-87
2022/09/04 09:54:49;;;;;;;;;;;;;;;22.01;52.42;100441.38;4387526;32;33863;-87
2022/09/04 09:57:17;;;;;;;;;;;;;;;21.82;52.44;100428.56;4377310;32;34253;-87
2022/09/04 10:00:01;;;;;;;;;;;;;;;21.84;53.46;100437.34;4371546;32;32930;-87
2022/09/04 10:03:03;;;;;;;;;;;;;;;22.32;51.78;100437.91;4370738;32;33322;-87
2022/09/04 10:05:50;;;;;;;;;;;;;;;22.44;51.34;100441.41;4390681;32;32341;-87
2022/09/04 10:08:26;;;;;;;;;;;;;;;22.52;51.81;100444.31;4359814;32;34473;-87
2022/09/04 10:11:29;;;;;;;;;;;;;;;22.46;51.35;100452.91;4355438;32;31923;-87
2022/09/04 10:13:56;;;;;;;;;;;;;;;22.39;51.67;100449.88;4352597;32;34057;-88
2022/09/04 10:16:24;;;;;;;;;;;;;;;22.12;54.04;100444.91;4390649;32;34319;-87
2022/09/04 10:18:55;;;;;;;;;;;;;;;22.39;52.64;100446.31;4378569;32;34649;-87
2022/09/04 10:21:23;;;;;;;;;;;;;;;22.14;52.99;100440.28;4386948;32;34253;-88
2022/09/04 10:24:09;;;;;;;;;;;;;;;22.03;52.84;100434.91;4377076;32;31577;-87
2022/09/04 10:26:47;;;;;;;;;;;;;;;22.33;51.39;100445.00;4403975;32;33319;-88
2022/09/04 10:29:22;;;;;;;;;;;;;;;22.33;52.08;100438.78;4365969;32;32912;-88
2022/09/04 10:31:52;;;;;;;;;;;;;;;22.70;51.48;100436.56;4375133;32;34091;-88
2022/09/04 10:34:37;;;;;;;;;;;;;;;22.70;50.78;100432.03;4369741;32;33194;-88
2022/09/04 10:37:04;;;;;;;;;;;;;;;22.42;52.71;100441.56;4366197;32;32373;-88
2022/09/04 10:42:22;;;;;;;;;;;;;;;22.26;52.66;100448.31;4401635;32;33419;-87
2022/09/04 10:44:56;;;;;;;;;;;;;;;22.11;55.86;100453.09;4377768;32;33188;-87
2022/09/04 10:47:29;;;;;;;;;;;;;;;22.06;57.59;100445.38;4365610;32;32876;-87
2022/09/04 10:50:14;;;;;;;;;;;;;;;21.99;57.80;100449.56;4385852;32;33511;-86
2022/09/04 10:52:49;;;;;;;;;;;;;;;22.04;57.28;100455.44;4378101;32;34986;-87
2022/09/04 10:55:27;;;;;;;;;;;;;;;21.81;57.51;100442.97;4386007;32;32972;-87
2022/09/04 10:57:58;;;;;;;;;;;;;;;21.73;59.06;100455.19;4390392;32;33131;-87
2022/09/04 11:00:30;;;;;;;;;;;;;;;22.09;58.21;100452.38;4364449;32;32721;-87
2022/09/04 11:03:02;;;;;;;;;;;;;;;22.02;59.25;100452.00;4356694;32;33215;-87
2022/09/04 11:05:43;;;;;;;;;;;;;;;21.54;62.22;100460.31;4365491;32;33858;-87
2022/09/04 11:08:25;;;;;;;;;;;;;;;21.72;62.19;100458.88;4362734;32;33361;-87
2022/09/04 11:11:05;;;;;;;;;;;;;;;22.28;60.85;100462.50;4389649;32;34003;-87
2022/09/04 11:13:49;;;;;;;;;;;;;;;22.55;58.96;100459.34;4389543;32;33524;-87
2022/09/04 11:16:33;;;;;;;;;;;;;;;22.52;58.42;100457.78;4375580;32;34179;-87
2022/09/04 11:19:20;;;;;;;;;;;;;;;22.46;60.36;100456.47;4378025;32;33411;-87
2022/09/04 11:22:07;;;;;;;;;;;;;;;22.61;56.85;100453.47;4376717;32;33258;-88
2022/09/04 11:24:40;;;;;;;;;;;;;;;22.84;55.92;100454.25;4391046;32;34442;-87
2022/09/04 11:27:19;;;;;;;;;;;;;;;22.56;56.09;100453.87;4378671;32;33717;-87
2022/09/04 11:29:58;;;;;;;;;;;;;;;23.12;53.17;100453.63;4352335;32;33143;-87
2022/09/04 11:32:47;;;;;;;;;;;;;;;23.34;50.09;100440.97;4378722;32;33972;-87
2022/09/04 11:35:33;;;;;;;;;;;;;;;22.99;51.18;100452.97;4379452;32;33311;-87
2022/09/04 11:38:07;;;;;;;;;;;;;;;23.09;51.02;100453.03;4393671;32;34886;-87
2022/09/04 11:40:34;;;;;;;;;;;;;;;23.36;49.97;100455.16;4377754;32;32886;-87
2022/09/04 11:43:08;;;;;;;;;;;;;;;22.94;50.94;100460.59;4367051;32;32743;-87
2022/09/04 11:45:40;;;;;;;;;;;;;;;23.17;51.72;100454.09;4371011;32;33539;-87
2022/09/04 11:48:10;;;;;;;;;;;;;;;23.03;50.96;100443.66;4354868;32;32602;-87
2022/09/04 11:50:41;;;;;;;;;;;;;;;23.04;50.69;100444.50;4372779;32;32700;-87
2022/09/04 11:53:18;;;;;;;;;;;;;;;22.78;51.85;100439.44;4378795;32;34973;-87
2022/09/04 11:55:50;;;;;;;;;;;;;;;23.13;51.51;100436.47;4351651;32;34399;-87
2022/09/04 11:58:29;;;;;;;;;;;;;;;23.34;51.49;100427.50;4353998;32;33240;-87
2022/09/04 12:01:13;;;;;;;;;;;;;;;23.55;49.55;100420.25;4376790;32;33479;-87
2022/09/04 12:03:50;;;;;;;;;;;;;;;23.50;51.00;100420.66;4386188;32;33999;-87
2022/09/04 12:06:37;;;;;;;;;;;;;;;23.01;53.28;100424.03;4378470;32;33479;-87
2022/09/04 12:09:21;;;;;;;;;;;;;;;23.40;50.60;100414.34;4379111;32;34575;-87
2022/09/04 12:12:09;;;;;;;;;;;;;;;23.66;48.34;100409.41;4370156;32;32147;-87
2022/09/04 12:14:46;;;;;;;;;;;;;;;23.51;49.05;100406.19;4368620;32;33876;-87
2022/09/04 12:17:14;;;;;;;;;;;;;;;23.71;48.21;100409.84;4362768;32;34009;-87
2022/09/04 12:20:01;;;;;;;;;;;;;;;23.90;47.22;100405.50;4377765;32;33988;-87
2022/09/04 12:23:01;;;;;;;;;;;;;;;24.11;46.02;100406.25;4376765;32;32078;-88
2022/09/04 12:25:43;;;;;;;;;;;;;;;24.25;46.01;100405.84;4343606;32;31778;-87
2022/09/04 12:28:20;;;;;;;;;;;;;;;24.39;44.72;100406.44;4353168;32;32096;-87
2022/09/04 12:31:14;;;;;;;;;;;;;;;24.13;45.76;100408.81;4352731;32;34235;-87
2022/09/04 12:33:46;;;;;;;;;;;;;;;24.31;45.31;100408.97;4360597;32;32120;-88
2022/09/04 12:36:22;;;;;;;;;;;;;;;24.44;45.96;100415.81;4364488;32;34923;-87
2022/09/04 12:39:06;;;;;;;;;;;;;;;24.47;46.08;100403.91;4388602;32;34032;-87
2022/09/04 12:41:53;;;;;;;;;;;;;;;24.83;45.91;100405.03;4387211;32;33539;-88
2022/09/04 12:44:38;;;;;;;;;;;;;;;25.01;43.40;100402.44;4380434;32;33416;-87
2022/09/04 12:47:06;;;;;;;;;;;;;;;24.71;44.14;100401.62;4356533;32;32938;-87
2022/09/04 12:49:40;;;;;;;;;;;;;;;24.67;44.88;100394.81;4373524;32;34635;-88
2022/09/04 12:52:17;;;;;;;;;;;;;;;24.96;43.87;100393.91;4380118;32;35102;-87
2022/09/04 12:54:49;;;;;;;;;;;;;;;25.27;43.91;100394.59;4360526;32;32949;-87
2022/09/04 12:57:25;;;;;;;;;;;;;;;25.20;42.44;100390.75;4364215;32;33762;-87
2022/09/04 12:59:53;;;;;;;;;;;;;;;25.17;43.09;100391.91;4357428;32;33148;-87
2022/09/04 13:02:28;;;;;;;;;;;;;;;25.06;43.78;100383.94;4370877;32;34328;-87
2022/09/04 13:05:16;;;;;;;;;;;;;;;24.97;43.64;100390.19;4343528;32;31455;-87
2022/09/04 13:08:13;;;;;;;;;;;;;;;25.35;42.80;100383.88;4338157;32;34167;-88
2022/09/04 13:10:42;;;;;;;;;;;;;;;25.35;44.16;100383.88;4359314;32;34377;-88
2022/09/04 13:13:14;;;;;;;;;;;;;;;25.58;43.64;100378.94;4357013;32;32740;-87
2022/09/04 13:15:54;;;;;;;;;;;;;;;25.87;43.72;100370.69;4357729;32;33128;-88
2022/09/04 13:18:42;;;;;;;;;;;;;;;26.04;44.82;100367.19;4365283;32;36536;-85
2022/09/04 13:21:18;;;;;;;;;;;;;;;26.28;42.65;100363.88;4366046;32;33459;-86
2022/09/04 13:23:49;;;;;;;;;;;;;;;26.12;41.55;100371.84;4355873;32;32869;-85
2022/09/04 13:26:19;;;;;;;;;;;;;;;25.37;42.88;100370.22;4372038;32;32539;-86
2022/09/04 13:28:53;;;;;;;;;;;;;;;25.82;41.31;100364.03;4383282;32;35112;-87
2022/09/04 13:31:20;;;;;;;;;;;;;;;26.08;41.62;100365.03;4362905;32;34501;-86
2022/09/04 13:33:52;;;;;;;;;;;;;;;26.03;41.64;100359.22;4367656;32;34133;-86